Time;durP1;ratioP1;P1;durP2;ratioP2;P2;SDS_P1;SDS_P2;PMS_P1;PMS_P2;Temp;Humidity;BMP_temperature;BMP_pressure;BME280_temperature;BME280_humidity;BME280_pressure;Samples;Min_cycle;Max_cycle;Signal;HPM_P1;HPM_P2
2022/01/28 00:03:00;;;;;;;12.73;2.15;;;;;;;-149.78;100.00;50502.75;5072451;28;20051;-64
2022/01/28 00:04:55;;;;;;;8.02;1.85;;;;;;;-149.78;100.00;50494.91;5060730;28;20408;-64
2022/01/28 00:07:20;;;;;;;12.50;2.13;;;;;;;-149.78;100.00;50447.97;5072711;28;20033;-64
2022/01/28 00:09:46;;;;;;;12.50;2.42;;;;;;;-149.78;100.00;50467.53;5072762;28;20431;-64
2022/01/28 00:12:13;;;;;;;12.65;2.72;;;;;;;-149.78;100.00;50514.47;5072570;28;20466;-64
2022/01/28 00:38:49;;;;;;;17.42;3.13;;;;;;;-149.78;100.00;50494.91;5075961;28;20040;-64
2022/01/28 00:41:16;;;;;;;13.52;3.30;;;;;;;-149.78;100.00;50467.53;5076254;28;20047;-64
2022/01/28 00:43:42;;;;;;;15.98;3.60;;;;;;;-149.78;100.00;50471.44;5076026;28;20156;-64
2022/01/28 00:46:08;;;;;;;20.48;3.22;;;;;;;-149.78;100.00;50463.63;5075942;28;20090;-64
2022/01/28 00:48:34;;;;;;;18.13;3.15;;;;;;;-149.78;100.00;50498.81;5057972;28;20407;-67
2022/01/28 00:50:59;;;;;;;13.07;2.92;;;;;;;-149.78;100.00;50477.31;5075679;28;20119;-67
2022/01/28 00:53:25;;;;;;;12.90;3.00;;;;;;;-149.78;100.00;50477.31;5058012;28;20035;-67
2022/01/28 00:55:54;;;;;;;17.70;3.47;;;;;;;-149.78;100.00;50455.81;5075763;28;20033;-67
2022/01/28 00:58:23;;;;;;;10.18;2.70;;;;;;;-149.78;100.00;50455.81;5075910;28;20342;-67
2022/01/28 01:00:49;;;;;;;10.20;2.70;;;;;;;-149.78;100.00;50489.03;5075427;28;20090;-67
2022/01/28 01:03:15;;;;;;;10.50;2.92;;;;;;;-149.78;100.00;50491.00;5040484;28;20037;-67
2022/01/28 01:05:41;;;;;;;17.00;3.03;;;;;;;-149.78;100.00;50487.09;5073871;28;20043;-67
2022/01/28 01:08:07;;;;;;;18.52;3.33;;;;;;;-149.78;100.00;50475.34;5074869;28;20024;-67
2022/01/28 01:10:33;;;;;;;9.27;2.85;;;;;;;-149.78;100.00;50475.34;5074982;28;20033;-67
2022/01/28 01:13:00;;;;;;;14.18;3.15;;;;;;;-149.78;100.00;50459.72;5074925;28;20036;-67
2022/01/28 01:15:31;;;;;;;13.90;2.78;;;;;;;-149.78;100.00;50498.81;5056221;28;20040;-67
2022/01/28 01:18:09;;;;;;;15.85;2.80;;;;;;;-149.78;100.00;50471.44;5075045;28;20075;-67
2022/01/28 01:20:52;;;;;;;10.18;3.20;;;;;;;-149.78;100.00;50455.81;5075333;28;20024;-67
2022/01/28 01:23:25;;;;;;;10.02;2.50;;;;;;;-149.78;100.00;50479.28;5074675;28;20468;-67
2022/01/28 01:25:55;;;;;;;14.88;3.70;;;;;;;-149.78;100.00;50459.72;5074653;28;20048;-67
2022/01/28 01:28:27;;;;;;;9.93;2.78;;;;;;;-149.78;100.00;50506.66;5057427;28;20494;-67
2022/01/28 01:30:52;;;;;;;15.43;3.15;;;;;;;-149.78;100.00;50510.56;5056734;28;20122;-64
2022/01/28 01:33:20;;;;;;;11.25;2.97;;;;;;;-149.78;100.00;50479.28;5074511;28;20025;-64
2022/01/28 01:35:46;;;;;;;15.25;2.85;;;;;;;-149.78;100.00;50510.56;5074544;28;20032;-64
2022/01/28 01:38:12;;;;;;;15.02;3.40;;;;;;;-149.78;100.00;50467.53;5074654;28;20036;-64
2022/01/28 01:40:48;;;;;;;17.23;3.35;;;;;;;-149.78;100.00;50494.91;5074598;28;20049;-64
2022/01/28 01:43:46;;;;;;;12.65;2.60;;;;;;;-149.78;100.00;50463.63;5075023;28;20390;-64
2022/01/28 01:54:13;;;;;;;15.48;3.40;;;;;;;-149.78;100.00;50483.19;5074579;28;20119;-64
2022/01/28 01:56:39;;;;;;;15.63;3.33;;;;;;;-149.78;100.00;50467.53;5074783;28;20464;-64
2022/01/28 01:59:08;;;;;;;10.40;3.75;;;;;;;-149.78;100.00;50475.34;5074583;28;20067;-64
2022/01/28 02:01:34;;;;;;;14.23;3.20;;;;;;;-149.78;100.00;50463.63;5074525;28;20063;-67
2022/01/28 02:04:00;;;;;;;16.63;3.90;;;;;;;-149.78;100.00;50489.03;5073828;28;20040;-67
2022/01/28 02:06:26;;;;;;;11.13;3.60;;;;;;;-149.78;100.00;50502.75;5074086;28;20036;-67
2022/01/28 02:08:52;;;;;;;14.30;4.05;;;;;;;-149.78;100.00;50500.78;5072433;28;20036;-67
2022/01/28 02:11:18;;;;;;;15.73;3.88;;;;;;;-149.78;100.00;50451.88;5056317;28;20368;-67
2022/01/28 02:13:49;;;;;;;12.55;3.35;;;;;;;-149.78;100.00;50494.91;5056572;28;20035;-67
2022/01/28 02:16:16;;;;;;;14.65;3.70;;;;;;;-149.78;100.00;50491.00;5074166;28;20045;-67
2022/01/28 02:18:42;;;;;;;17.75;3.70;;;;;;;-149.78;100.00;50455.81;5074092;28;20107;-67
2022/01/28 02:21:10;;;;;;;13.85;3.83;;;;;;;-149.78;100.00;50491.00;5064936;28;20115;-67
2022/01/28 02:23:38;;;;;;;13.32;3.60;;;;;;;-149.78;100.00;50479.28;5071993;28;20025;-67
2022/01/28 02:26:05;;;;;;;8.60;3.33;;;;;;;-149.78;100.00;50479.28;5073741;28;20048;-67
2022/01/28 02:28:35;;;;;;;11.55;4.80;;;;;;;-149.78;100.00;50447.97;5072869;28;20021;-67
2022/01/28 02:31:02;;;;;;;19.10;3.60;;;;;;;-149.78;100.00;50459.72;5062288;28;20040;-67
2022/01/28 02:33:29;;;;;;;22.33;4.32;;;;;;;-149.78;100.00;50471.44;5068120;28;20495;-67
2022/01/28 02:35:55;;;;;;;13.80;3.22;;;;;;;-149.78;100.00;50471.44;5053726;28;20037;-67
2022/01/28 02:38:23;;;;;;;11.88;3.30;;;;;;;-149.78;100.00;50479.28;5066070;28;20480;-67
2022/01/28 02:40:55;;;;;;;8.93;3.03;;;;;;;-149.78;100.00;50510.56;5055840;28;20388;-67
2022/01/28 02:45:48;;;;;;;14.70;4.20;;;;;;;-149.78;100.00;50463.63;5073628;28;20040;-67
2022/01/28 02:48:18;;;;;;;13.40;3.00;;;;;;;-149.78;100.00;50496.88;5073648;28;20067;-67
2022/01/28 02:51:02;;;;;;;14.82;3.40;;;;;;;-149.78;100.00;50473.41;5055768;28;20040;-67
2022/01/28 02:53:38;;;;;;;8.60;2.90;;;;;;;-149.78;100.00;50459.72;5073459;28;20058;-67
2022/01/28 02:56:12;;;;;;;8.88;2.80;;;;;;;-149.78;100.00;50487.09;5055470;28;20036;-67
2022/01/28 02:58:38;;;;;;;13.30;2.90;;;;;;;-149.78;100.00;50491.00;5073515;28;20028;-67
2022/01/28 03:01:03;;;;;;;13.38;3.15;;;;;;;-149.78;100.00;50491.00;5073315;28;20416;-67
2022/01/28 03:03:29;;;;;;;13.80;3.40;;;;;;;-149.78;100.00;50502.75;5073561;28;20353;-67
2022/01/28 03:05:55;;;;;;;13.55;3.30;;;;;;;-149.78;100.00;50487.09;5072539;28;20051;-67
2022/01/28 03:08:24;;;;;;;9.75;3.05;;;;;;;-149.78;100.00;50477.31;5073469;28;20036;-67
2022/01/28 03:15:55;;;;;;;12.27;3.10;;;;;;;-149.78;100.00;50502.75;5073414;28;20166;-67
2022/01/28 03:18:28;;;;;;;11.65;3.10;;;;;;;-149.78;100.00;50506.66;5073239;28;20041;-67
2022/01/28 03:23:19;;;;;;;15.30;3.63;;;;;;;-149.78;100.00;50508.59;5072429;28;20052;-67
2022/01/28 03:25:47;;;;;;;12.65;2.83;;;;;;;-149.78;100.00;50465.56;5073162;28;20036;-67
2022/01/28 03:28:14;;;;;;;12.18;3.58;;;;;;;-149.78;100.00;50481.22;5072954;28;20059;-67
2022/01/28 03:30:40;;;;;;;12.65;3.85;;;;;;;-149.78;100.00;50430.38;5073233;28;20029;-67
2022/01/28 03:33:06;;;;;;;10.95;3.28;;;;;;;-149.78;100.00;50528.16;5072979;28;20035;-67
2022/01/28 03:35:35;;;;;;;13.52;3.35;;;;;;;-149.78;100.00;50504.69;5073218;28;20033;-67
2022/01/28 03:38:03;;;;;;;11.60;3.08;;;;;;;-149.78;100.00;50483.19;5072978;28;20043;-67
2022/01/28 03:40:36;;;;;;;12.90;3.33;;;;;;;-149.78;100.00;50453.84;5072970;28;20048;-67
2022/01/28 03:43:05;;;;;;;13.88;3.17;;;;;;;-149.78;100.00;50479.28;5055312;28;20051;-67
2022/01/28 03:45:30;;;;;;;8.18;3.47;;;;;;;-149.78;100.00;50483.19;5073132;28;20050;-67
2022/01/28 03:47:56;;;;;;;13.45;3.60;;;;;;;-149.78;100.00;50467.53;5064656;28;20041;-67
2022/01/28 03:50:22;;;;;;;11.57;3.53;;;;;;;-149.78;100.00;50479.28;5072109;28;20122;-67
2022/01/28 03:52:48;;;;;;;10.27;3.50;;;;;;;-149.78;100.00;50479.28;5072798;28;20028;-67
2022/01/28 03:55:13;;;;;;;16.55;4.10;;;;;;;-149.78;100.00;50461.66;5073005;28;20112;-67
2022/01/28 03:57:39;;;;;;;16.13;3.50;;;;;;;-149.78;100.00;50422.56;5072906;28;20072;-67
2022/01/28 04:00:07;;;;;;;11.32;3.70;;;;;;;-149.78;100.00;50487.09;5072892;28;20477;-67
2022/01/28 04:02:36;;;;;;;14.27;3.67;;;;;;;-149.78;100.00;50492.97;5072723;28;20068;-67
2022/01/28 04:13:24;;;;;;;12.38;2.83;;;;;;;-149.78;100.00;50483.19;5061410;28;20566;-67
2022/01/28 04:16:05;;;;;;;10.68;3.25;;;;;;;-149.78;100.00;50502.75;5076825;28;20376;-67
2022/01/28 04:18:31;;;;;;;13.68;3.42;;;;;;;-149.78;100.00;50491.00;5076706;28;20547;-67
2022/01/28 04:20:56;;;;;;;10.40;3.35;;;;;;;-149.78;100.00;50485.13;5076359;28;20181;-67
2022/01/28 04:23:22;;;;;;;9.63;2.90;;;;;;;-149.78;100.00;50483.19;5068043;28;20562;-67
2022/01/28 04:25:47;;;;;;;18.42;3.88;;;;;;;-149.78;100.00;50479.28;5069113;28;20036;-67
2022/01/28 04:28:13;;;;;;;15.15;3.95;;;;;;;-149.78;100.00;50498.81;5075488;28;20052;-67
2022/01/28 04:30:38;;;;;;;14.15;3.97;;;;;;;-149.78;100.00;50483.19;5075797;28;20480;-67
2022/01/28 04:33:04;;;;;;;15.68;4.95;;;;;;;-149.78;100.00;50494.91;5075642;28;20036;-67
2022/01/28 04:35:29;;;;;;;17.75;5.28;;;;;;;-149.78;100.00;50483.19;5056994;28;20510;-67
2022/01/28 04:40:27;;;;;;;20.58;6.30;;;;;;;-149.78;100.00;50485.13;5075254;28;20060;-67
2022/01/28 04:43:05;;;;;;;;;;;;;;;-149.78;100.00;50459.72;5075815;28;20098;-67
2022/01/28 04:48:17;;;;;;;16.55;4.88;;;;;;;-149.78;100.00;50498.81;5075091;28;20028;-67
2022/01/28 05:07:32;;;;;;;16.75;5.85;;;;;;;-149.78;100.00;50491.00;4974596;28;20406;-67
2022/01/28 05:10:29;;;;;;;15.70;6.10;;;;;;;-149.78;100.00;50526.22;4974703;28;20038;-67
2022/01/28 05:28:29;;;;;;;17.00;6.83;;;;;;;-149.78;100.00;50545.75;5075283;28;20531;-67
2022/01/28 05:30:55;;;;;;;21.33;6.65;;;;;;;-149.78;100.00;50518.38;5075016;28;20028;-67
2022/01/28 05:33:21;;;;;;;21.02;7.32;;;;;;;-149.78;100.00;50506.66;5075069;28;20038;-67
2022/01/28 05:35:46;;;;;;;20.52;7.10;;;;;;;-149.78;100.00;50465.56;5074906;28;20480;-67
2022/01/28 05:38:12;;;;;;;17.02;6.82;;;;;;;-149.78;100.00;50467.53;5074958;28;20056;-67
2022/01/28 05:40:38;;;;;;;23.95;7.50;;;;;;;-149.78;100.00;50491.00;5074619;28;20067;-67
2022/01/28 05:43:03;;;;;;;21.55;8.10;;;;;;;-149.78;100.00;50510.56;5074918;28;20078;-67
2022/01/28 05:45:29;;;;;;;25.00;6.95;;;;;;;-149.78;100.00;50506.66;5056976;28;20033;-67
2022/01/28 05:47:55;;;;;;;20.85;6.88;;;;;;;-149.78;100.00;50498.81;5056807;28;20040;-67
2022/01/28 05:50:20;;;;;;;20.92;7.55;;;;;;;-149.78;100.00;50518.38;5074658;28;20037;-67
2022/01/28 05:52:46;;;;;;;20.88;7.00;;;;;;;-149.78;100.00;50502.75;5074673;28;20037;-67
2022/01/28 05:55:11;;;;;;;30.02;8.43;;;;;;;-149.78;100.00;50498.81;5074317;28;20045;-67
2022/01/28 05:57:37;;;;;;;36.70;9.95;;;;;;;-149.78;100.00;50498.81;5074598;28;20032;-67
2022/01/28 06:00:05;;;;;;;24.00;9.10;;;;;;;-149.78;100.00;50487.09;5074225;28;20039;-67
2022/01/28 06:02:30;;;;;;;31.92;9.52;;;;;;;-149.78;100.00;50467.53;5074227;28;20464;-67
2022/01/28 06:04:56;;;;;;;23.77;9.40;;;;;;;-149.78;100.00;50500.78;5073103;28;20131;-67
2022/01/28 06:07:22;;;;;;;24.00;8.60;;;;;;;-149.78;100.00;50500.78;5073155;28;20036;-67
2022/01/28 06:09:47;;;;;;;38.70;11.90;;;;;;;-149.78;100.00;50518.38;5074131;28;20044;-67
2022/01/28 06:12:13;;;;;;;20.10;9.20;;;;;;;-149.78;100.00;50483.19;5056338;28;20028;-68
2022/01/28 06:14:39;;;;;;;24.48;8.35;;;;;;;-149.78;100.00;50487.09;5074386;28;20635;-67
2022/01/28 06:17:05;;;;;;;26.60;8.38;;;;;;;-149.78;100.00;50487.09;5074235;28;20379;-67
2022/01/28 06:19:30;;;;;;;24.60;9.23;;;;;;;-149.78;100.00;50477.31;5056229;28;20137;-67
2022/01/28 06:21:56;;;;;;;26.70;9.27;;;;;;;-149.78;100.00;50510.56;5056392;28;20071;-67
2022/01/28 06:24:21;;;;;;;33.38;10.02;;;;;;;-149.78;100.00;50496.88;5073999;28;20064;-67
2022/01/28 06:26:48;;;;;;;36.05;11.00;;;;;;;-149.78;100.00;50506.66;5055251;28;20044;-67
2022/01/28 06:29:14;;;;;;;29.38;10.55;;;;;;;-149.78;100.00;50487.09;5074042;28;20028;-67
2022/01/28 06:31:41;;;;;;;29.40;9.98;;;;;;;-149.78;100.00;50549.69;5073747;28;20382;-67
2022/01/28 06:34:07;;;;;;;29.98;9.20;;;;;;;-149.78;100.00;50506.66;5073706;28;20123;-67
2022/01/28 06:36:32;;;;;;;31.77;9.85;;;;;;;-149.78;100.00;50498.81;5073611;28;20085;-67
2022/01/28 06:38:58;;;;;;;31.42;9.63;;;;;;;-149.78;100.00;50498.81;5073534;28;20044;-67
2022/01/28 06:41:24;;;;;;;27.38;10.15;;;;;;;-149.78;100.00;50502.75;5044328;28;20173;-67
2022/01/28 06:43:49;;;;;;;34.95;10.88;;;;;;;-149.78;100.00;50463.63;5057779;28;20040;-67
2022/01/28 06:46:15;;;;;;;33.28;9.77;;;;;;;-149.78;100.00;50514.47;5063212;28;20531;-67
2022/01/28 06:48:41;;;;;;;30.75;9.85;;;;;;;-149.78;100.00;50541.84;5070895;28;20032;-67
2022/01/28 06:51:06;;;;;;;30.20;9.77;;;;;;;-149.78;100.00;50524.25;5060853;28;20028;-67
2022/01/28 06:53:32;;;;;;;30.27;9.63;;;;;;;-149.78;100.00;50530.13;5058887;28;20033;-67
2022/01/28 06:55:58;;;;;;;31.00;10.40;;;;;;;-149.78;100.00;50485.13;5062573;28;20040;-64
2022/01/28 06:58:24;;;;;;;34.97;10.02;;;;;;;-149.78;100.00;50451.88;5052968;28;20033;-64
2022/01/28 07:00:50;;;;;;;31.90;10.40;;;;;;;-149.78;100.00;50491.00;5040826;28;20094;-63
2022/01/28 07:03:15;;;;;;;32.42;11.50;;;;;;;-149.78;100.00;50518.38;5059130;28;20063;-65
2022/01/28 07:05:42;;;;;;;33.83;10.77;;;;;;;-149.78;100.00;50514.47;5061898;28;20346;-65
2022/01/28 07:08:08;;;;;;;39.38;11.95;;;;;;;-149.78;100.00;50514.47;5063316;28;21919;-65
2022/01/28 07:10:34;;;;;;;33.45;10.93;;;;;;;-149.78;100.00;50485.13;5056809;28;20116;-65
2022/01/28 07:13:01;;;;;;;33.05;10.02;;;;;;;-149.78;100.00;50549.69;5058235;28;20507;-68
2022/01/28 07:15:27;;;;;;;32.55;10.40;;;;;;;-149.78;100.00;50498.81;5061789;28;20033;-68
2022/01/28 07:17:54;;;;;;;28.92;9.48;;;;;;;-149.78;100.00;50494.91;5055824;28;20067;-68
2022/01/28 07:20:20;;;;;;;28.98;10.40;;;;;;;-149.78;100.00;50475.34;5057789;28;20033;-68
2022/01/28 07:22:47;;;;;;;30.48;9.88;;;;;;;-149.78;100.00;50491.00;5060172;28;20036;-68
2022/01/28 07:25:13;;;;;;;27.75;9.38;;;;;;;-149.78;100.00;50498.81;5055998;28;20463;-68
2022/01/28 07:27:39;;;;;;;27.77;9.38;;;;;;;-149.78;100.00;50483.19;5054168;28;20036;-68
2022/01/28 07:30:06;;;;;;;27.75;9.55;;;;;;;-149.78;100.00;50498.81;5072790;28;20037;-68
2022/01/28 07:32:32;;;;;;;33.78;10.25;;;;;;;-149.78;100.00;50514.47;5061085;28;20033;-65
2022/01/28 07:34:58;;;;;;;35.78;10.82;;;;;;;-149.78;100.00;50514.47;5058148;28;20035;-65
2022/01/28 07:37:24;;;;;;;29.25;9.63;;;;;;;-149.78;100.00;50502.75;5064105;28;20032;-65
2022/01/28 07:39:50;;;;;;;28.17;10.60;;;;;;;-149.78;100.00;50502.75;5073855;28;20055;-65
2022/01/28 07:42:17;;;;;;;31.80;9.32;;;;;;;-149.78;100.00;50479.28;5076849;28;20032;-66
2022/01/28 07:44:44;;;;;;;35.53;10.00;;;;;;;-149.78;100.00;50475.34;5076810;28;20059;-64
2022/01/28 07:47:10;;;;;;;32.38;9.82;;;;;;;-149.78;100.00;50494.91;5076502;28;20471;-63
2022/01/28 07:49:36;;;;;;;31.13;10.18;;;;;;;-149.78;100.00;50494.91;5075154;28;20376;-63
2022/01/28 07:52:02;;;;;;;30.65;10.40;;;;;;;-149.78;100.00;50491.00;5040557;28;20049;-63
2022/01/28 07:54:28;;;;;;;32.00;9.23;;;;;;;-149.78;100.00;50485.13;5053915;28;20032;-64
2022/01/28 07:56:54;;;;;;;28.27;9.40;;;;;;;-149.78;100.00;50473.41;5050759;28;20032;-64
2022/01/28 07:59:21;;;;;;;30.27;10.73;;;;;;;-149.78;100.00;50471.44;5063470;28;20353;-64
2022/01/28 08:01:48;;;;;;;33.80;12.18;;;;;;;-149.78;100.00;50518.38;5075455;28;20448;-64
2022/01/28 08:04:14;;;;;;;48.05;13.52;;;;;;;-149.78;100.00;50502.75;5066217;28;20128;-64
2022/01/28 08:06:41;;;;;;;44.83;13.45;;;;;;;-149.78;100.00;50491.00;5070648;28;20043;-64
2022/01/28 08:09:07;;;;;;;33.28;12.63;;;;;;;-149.78;100.00;50491.00;5076461;28;20028;-66
2022/01/28 08:11:34;;;;;;;40.15;13.07;;;;;;;-149.78;100.00;50498.81;5074214;28;20050;-63
2022/01/28 08:13:59;;;;;;;45.58;12.95;;;;;;;-149.78;100.00;50489.03;5070034;28;20453;-63
2022/01/28 08:16:25;;;;;;;37.33;12.80;;;;;;;-149.78;100.00;50463.63;5061241;28;20033;-63
2022/01/28 08:18:50;;;;;;;41.50;13.20;;;;;;;-149.78;100.00;50465.56;5068448;28;20511;-63
2022/01/28 08:21:16;;;;;;;37.20;13.13;;;;;;;-149.78;100.00;50463.63;5047437;28;20131;-63
2022/01/28 08:23:42;;;;;;;46.45;14.80;;;;;;;-149.78;100.00;50494.91;5067272;28;20035;-63
2022/01/28 08:26:08;;;;;;;46.17;14.93;;;;;;;-149.78;100.00;50498.81;5065244;28;20483;-64
2022/01/28 08:28:35;;;;;;;41.78;14.27;;;;;;;-149.78;100.00;50502.75;5063511;28;20028;-64
2022/01/28 08:31:01;;;;;;;42.00;14.52;;;;;;;-149.78;100.00;50491.00;5069476;28;20093;-64
2022/01/28 08:33:27;;;;;;;36.33;12.98;;;;;;;-149.78;100.00;50491.00;5052525;28;20060;-65
2022/01/28 08:35:54;;;;;;;36.33;12.70;;;;;;;-149.78;100.00;50487.09;5043923;28;20484;-64
2022/01/28 08:38:30;;;;;;;37.80;15.52;;;;;;;-149.78;100.00;50494.91;5070365;28;20032;-65
2022/01/28 08:40:58;;;;;;;39.13;14.15;;;;;;;-149.78;100.00;50479.28;5074575;28;20105;-67
2022/01/28 08:43:25;;;;;;;43.08;13.05;;;;;;;-149.78;100.00;50506.66;5075772;28;20028;-67
2022/01/28 08:45:50;;;;;;;35.25;13.80;;;;;;;-149.78;100.00;50467.53;5057930;28;20480;-67
2022/01/28 08:48:16;;;;;;;42.22;13.50;;;;;;;-149.78;100.00;50455.81;5075508;28;20043;-67
2022/01/28 08:50:42;;;;;;;34.03;13.30;;;;;;;-149.78;100.00;50485.13;5074659;28;20067;-67
2022/01/28 08:53:10;;;;;;;39.00;14.45;;;;;;;-149.78;100.00;50491.00;5057954;28;20036;-67
2022/01/28 08:55:37;;;;;;;38.42;13.75;;;;;;;-149.78;100.00;50463.63;5070993;28;20044;-67
2022/01/28 08:58:05;;;;;;;39.30;13.25;;;;;;;-149.78;100.00;50489.03;5075430;28;20036;-64
2022/01/28 09:00:32;;;;;;;42.00;14.43;;;;;;;-149.78;100.00;50510.56;5074825;28;20037;-68
2022/01/28 09:02:57;;;;;;;36.63;14.15;;;;;;;-149.78;100.00;50494.91;5057280;28;20043;-68
2022/01/28 09:05:23;;;;;;;30.33;12.45;;;;;;;-149.78;100.00;50494.91;5067860;28;20040;-68
2022/01/28 09:07:50;;;;;;;28.17;10.98;;;;;;;-149.78;100.00;50461.66;5059518;28;20045;-68
2022/01/28 09:10:23;;;;;;;29.17;11.20;;;;;;;-149.78;100.00;50479.28;5063541;28;20430;-68
2022/01/28 09:13:10;;;;;;;27.13;11.35;;;;;;;-149.78;100.00;50467.53;5065926;28;20041;-68
2022/01/28 09:15:40;;;;;;;25.35;9.93;;;;;;;-149.78;100.00;50485.13;5068641;28;20105;-68
2022/01/28 09:18:09;;;;;;;26.20;10.20;;;;;;;-149.78;100.00;50471.44;5075398;28;20154;-64
2022/01/28 09:20:36;;;;;;;31.65;11.60;;;;;;;-149.78;100.00;50487.09;5075033;28;20036;-65
2022/01/28 09:23:03;;;;;;;33.97;13.00;;;;;;;-149.78;100.00;50432.31;5068571;28;20036;-65
2022/01/28 09:25:28;;;;;;;28.98;12.82;;;;;;;-149.78;100.00;50487.09;5065102;28;20461;-65
2022/01/28 09:27:55;;;;;;;46.50;14.85;;;;;;;-149.78;100.00;50461.66;5065742;28;20123;-65
2022/01/28 09:30:20;;;;;;;29.95;12.60;;;;;;;-149.78;100.00;50481.22;5068860;28;20514;-65
2022/01/28 09:32:46;;;;;;;33.70;13.13;;;;;;;-149.78;100.00;50494.91;5056282;28;20033;-65
2022/01/28 09:35:12;;;;;;;34.10;13.75;;;;;;;-149.78;100.00;50487.09;5074422;28;20624;-65
2022/01/28 09:37:38;;;;;;;31.40;13.07;;;;;;;-149.78;100.00;50498.81;5074453;28;20033;-65
2022/01/28 09:40:05;;;;;;;32.05;13.30;;;;;;;-149.78;100.00;50471.44;5074218;28;20416;-65
2022/01/28 09:42:37;;;;;;;33.15;13.90;;;;;;;-149.78;100.00;50487.09;5074314;28;20036;-65
2022/01/28 09:45:04;;;;;;;38.45;14.57;;;;;;;-149.78;100.00;50485.13;5058275;28;20123;-65
2022/01/28 09:47:30;;;;;;;34.55;13.15;;;;;;;-149.78;100.00;50487.09;5053470;28;20048;-66
2022/01/28 09:49:57;;;;;;;29.48;12.35;;;;;;;-149.78;100.00;50487.09;5047916;28;20039;-65
2022/01/28 09:52:22;;;;;;;29.25;11.40;;;;;;;-149.78;100.00;50463.63;5072847;28;20056;-65
2022/01/28 09:54:48;;;;;;;36.08;11.65;;;;;;;-149.78;100.00;50479.28;5065311;28;20487;-65
2022/01/28 09:57:19;;;;;;;31.15;11.88;;;;;;;-149.78;100.00;50451.88;5063777;28;20047;-65
2022/01/28 09:59:45;;;;;;;26.73;11.82;;;;;;;-149.78;100.00;50487.09;5071227;28;20040;-65
2022/01/28 10:02:11;;;;;;;28.05;10.93;;;;;;;-149.78;100.00;50461.66;5073956;28;20478;-65
2022/01/28 10:04:37;;;;;;;28.55;11.07;;;;;;;-149.78;100.00;50491.00;5074073;28;20037;-65
2022/01/28 10:07:15;;;;;;;28.35;10.18;;;;;;;-149.78;100.00;50500.78;5065353;28;20376;-65
2022/01/28 10:10:02;;;;;;;34.45;11.15;;;;;;;-149.78;100.00;50451.88;5061350;28;20029;-65
2022/01/28 10:12:43;;;;;;;24.58;9.90;;;;;;;-149.78;100.00;50475.34;5061857;28;20034;-65
2022/01/28 10:15:28;;;;;;;22.30;9.63;;;;;;;-149.78;100.00;50436.25;5056002;28;20033;-65
2022/01/28 10:17:58;;;;;;;20.42;8.52;;;;;;;-149.78;100.00;50491.00;5056494;28;20044;-65
2022/01/28 10:20:25;;;;;;;21.65;8.02;;;;;;;-149.78;100.00;50463.63;5067334;28;20036;-65
2022/01/28 10:22:52;;;;;;;17.90;6.80;;;;;;;-149.78;100.00;50451.88;5064736;28;20033;-65
2022/01/28 10:25:32;;;;;;;23.10;6.82;;;;;;;-149.78;100.00;50481.22;5046322;28;20075;-65
2022/01/28 10:28:05;;;;;;;16.88;5.95;;;;;;;-149.78;100.00;50463.63;5053883;28;20056;-65
2022/01/28 10:30:43;;;;;;;15.60;5.55;;;;;;;-149.78;100.00;50485.13;5064359;28;20040;-65
2022/01/28 10:33:21;;;;;;;11.43;5.15;;;;;;;-149.78;100.00;50459.72;5065737;28;20024;-65
2022/01/28 10:35:54;;;;;;;10.68;4.72;;;;;;;-149.78;100.00;50459.72;5061273;28;20033;-65
2022/01/28 10:38:31;;;;;;;16.33;5.00;;;;;;;-149.78;100.00;50498.81;5067971;28;20077;-65
2022/01/28 10:41:13;;;;;;;10.90;4.97;;;;;;;-149.78;100.00;50487.09;5064495;28;20488;-65
2022/01/28 10:43:51;;;;;;;11.93;4.72;;;;;;;-149.78;100.00;50432.31;5058003;28;20033;-65
2022/01/28 10:46:21;;;;;;;10.98;4.80;;;;;;;-149.78;100.00;50489.03;5061876;28;20119;-65
2022/01/28 10:48:53;;;;;;;15.13;5.90;;;;;;;-149.78;100.00;50463.63;5056044;28;20040;-68
2022/01/28 10:51:21;;;;;;;10.20;5.45;;;;;;;-149.78;100.00;50469.50;5062185;28;20035;-68
2022/01/28 10:54:07;;;;;;;18.05;4.97;;;;;;;-149.78;100.00;50447.97;5058135;28;20484;-68
2022/01/28 10:56:55;;;;;;;11.60;5.38;;;;;;;-149.78;100.00;50440.16;5058418;28;20037;-68
2022/01/28 10:59:43;;;;;;;14.23;5.85;;;;;;;-149.78;100.00;50420.59;5055994;28;20383;-68
2022/01/28 11:02:09;;;;;;;12.02;5.28;;;;;;;-149.78;100.00;50459.72;5059199;28;20116;-68
2022/01/28 11:04:34;;;;;;;14.52;4.78;;;;;;;-149.78;100.00;50440.16;5061983;28;20104;-68
2022/01/28 11:07:02;;;;;;;11.90;4.55;;;;;;;-149.78;100.00;50475.34;5066214;28;20102;-68
2022/01/28 11:09:30;;;;;;;12.55;4.60;;;;;;;-149.78;100.00;50438.19;5055465;28;20085;-68
2022/01/28 11:11:56;;;;;;;12.82;4.43;;;;;;;-149.78;100.00;50463.63;5053158;28;20476;-67
2022/01/28 11:14:22;;;;;;;16.33;4.68;;;;;;;-149.78;100.00;50471.44;5052729;28;20068;-68
2022/01/28 11:16:48;;;;;;;14.73;4.05;;;;;;;-149.78;100.00;50453.84;5055909;28;20128;-68
2022/01/28 11:19:17;;;;;;;9.82;4.10;;;;;;;-149.78;100.00;50447.97;5066541;28;20123;-68
2022/01/28 11:22:05;;;;;;;6.80;3.72;;;;;;;-149.78;100.00;50453.84;5073293;28;20044;-68
2022/01/28 11:25:08;;;;;;;7.97;4.93;;;;;;;-149.78;100.00;50471.44;5054729;28;20040;-68
2022/01/28 11:27:40;;;;;;;11.13;4.43;;;;;;;-149.78;100.00;50459.72;5052500;28;20033;-68
2022/01/28 11:30:23;;;;;;;14.23;4.80;;;;;;;-149.78;100.00;50453.84;5067242;28;20032;-68
2022/01/28 11:32:59;;;;;;;11.40;3.83;;;;;;;-149.78;100.00;50477.31;5069839;28;20021;-68
2022/01/28 11:35:37;;;;;;;11.63;4.22;;;;;;;-149.78;100.00;50475.34;5045025;28;20029;-68
2022/01/28 11:38:36;;;;;;;8.05;4.07;;;;;;;-149.78;100.00;50487.09;5052846;28;20524;-68
2022/01/28 11:41:21;;;;;;;6.60;4.05;;;;;;;-149.78;100.00;50465.56;5041210;28;20538;-68
2022/01/28 11:43:54;;;;;;;8.73;4.28;;;;;;;-149.78;100.00;50465.56;5052901;28;20048;-68
2022/01/28 11:46:27;;;;;;;;;;;;;;;-149.78;100.00;50424.50;5053266;28;20478;-68
2022/01/28 11:48:55;;;;;;;7.22;3.78;;;;;;;-149.78;100.00;50440.16;5052824;28;19920;-68
2022/01/28 11:51:38;;;;;;;13.88;4.20;;;;;;;-149.78;100.00;50469.50;5055120;28;20476;-68
2022/01/28 11:54:05;;;;;;;8.65;3.90;;;;;;;-149.78;100.00;50438.19;5052968;28;20029;-68
2022/01/28 11:56:32;;;;;;;12.13;4.70;;;;;;;-149.78;100.00;50467.53;5064046;28;20040;-68
2022/01/28 11:59:05;;;;;;;12.90;4.85;;;;;;;-149.78;100.00;50483.19;5072762;28;20093;-68
2022/01/28 12:01:39;;;;;;;13.00;4.57;;;;;;;-149.78;100.00;50447.97;5064334;28;20444;-68
2022/01/28 12:04:23;;;;;;;13.18;4.93;;;;;;;-149.78;100.00;50434.28;5061218;28;20033;-68
2022/01/28 12:06:54;;;;;;;9.43;4.53;;;;;;;-149.78;100.00;50440.16;5051912;28;20037;-65
2022/01/28 12:09:22;;;;;;;8.63;3.80;;;;;;;-149.78;100.00;50471.44;5052092;28;20033;-65
2022/01/28 12:11:48;;;;;;;9.82;4.50;;;;;;;-149.78;100.00;50463.63;5065336;28;20044;-65
2022/01/28 12:14:14;;;;;;;12.13;5.10;;;;;;;-149.78;100.00;50444.06;5056941;28;20029;-65
2022/01/28 12:16:47;;;;;;;15.00;4.95;;;;;;;-149.78;100.00;50455.81;5058687;28;20044;-68
2022/01/28 12:19:21;;;;;;;11.45;5.00;;;;;;;-149.78;100.00;50447.97;5060524;28;20040;-68
2022/01/28 12:22:09;;;;;;;10.85;4.63;;;;;;;-149.78;100.00;50432.31;5061362;28;20129;-68
2022/01/28 12:24:37;;;;;;;12.30;4.78;;;;;;;-149.78;100.00;50436.25;5061695;28;20470;-68
2022/01/28 12:27:10;;;;;;;10.52;5.68;;;;;;;-149.78;100.00;50444.06;5061347;28;20029;-68
2022/01/28 12:29:44;;;;;;;11.75;5.20;;;;;;;-149.78;100.00;50451.88;5056360;28;20032;-68
2022/01/28 12:32:11;;;;;;;10.02;4.88;;;;;;;-149.78;100.00;50422.56;5071642;28;20043;-67
2022/01/28 12:34:44;;;;;;;9.45;4.70;;;;;;;-149.78;100.00;50416.69;5075966;28;20086;-67
2022/01/28 12:37:09;;;;;;;12.23;4.88;;;;;;;-149.78;100.00;50471.44;5075863;28;20047;-67